Rechercher aéroport 
image banner adimage banner adimage banner ad
image banner ad

KNZY - North Island Nas /Halsey Field/

Situé à San Diego, United States

ICAO - NZY, IATA - NZY

Données fournies par Airmate  

Information générale

Coordonnées: N32°41'54" W117°12'47"
Élévation : 26 feet MSL.
Variation magnétique : 11° East
Voir autres Aéroports à California

Données opérationnelles

Special qualification required
Heure actuelle UTC:
Heure actuelle locale:
Météo
METAR: KNZY 251212Z AUTO 00000KT 10SM OVC014 20/16 A2996 RMK AO2 T02000161
TAF: TAF KNZY 2507/2607 VRB06KT 9999 BKN015 BKN120 641609 642503 QNH2990INS TEMPO 2507/2513 SCT015 BECMG 2515/2517 VRB06KT 9999 VCSH SCT012 BKN120 600000 QNH2991INS T19/2507Z T23/2521Z FS30015
Voir NOTAMs / SUP AIP / TFR affectant cet aéroport [VIEW]
Fréquences de communication: [VIEW]

Pistes:

Identifiant RWYQFULongueur (ft)Largeur (ft)SurfaceLDA (ft)
11121°7500200OTHER
29301°7500200OTHER
18195°8000200OTHER
3615°8000200OTHER

Coordonnées de l'aéroport

Adresse: San Diego United States

Vue satellite de KNZY